createdAt,value
2019-04-14T00:00:57.569Z,99777.19
2019-04-14T00:03:39.390Z,99774.58
2019-04-14T00:06:07.272Z,99770.67
2019-04-14T00:08:35.136Z,99768.41
2019-04-14T00:11:08.346Z,99769.52
2019-04-14T00:13:39.181Z,99771.39
2019-04-14T00:16:07.448Z,99766.11
2019-04-14T00:18:35.881Z,99768.95
2019-04-14T00:21:04.440Z,99768.70
2019-04-14T00:23:32.670Z,99767.19
2019-04-14T00:26:27.373Z,99765.82
2019-04-14T00:28:55.592Z,99768.05
2019-04-14T00:31:23.902Z,99766.70
2019-04-14T00:33:54.239Z,99769.02
2019-04-14T00:36:44.306Z,99769.42
2019-04-14T00:39:22.663Z,99771.36
2019-04-14T00:42:00.301Z,99770.06
2019-04-14T00:44:49.597Z,99771.78
2019-04-14T00:47:20.561Z,99773.38
2019-04-14T00:49:48.734Z,99767.84
2019-04-14T00:52:19.467Z,99775.88
2019-04-14T00:54:47.775Z,99771.75
2019-04-14T00:57:15.899Z,99771.14
2019-04-14T00:59:44.053Z,99775.00
2019-04-14T01:02:12.401Z,99768.62
2019-04-14T01:04:40.546Z,99772.87
2019-04-14T01:07:08.748Z,99769.69
2019-04-14T01:09:36.970Z,99766.28
2019-04-14T01:12:10.863Z,99763.30
2019-04-14T01:14:38.875Z,99761.83
2019-04-14T01:17:06.974Z,99764.41
2019-04-14T01:19:35.231Z,99766.84
2019-04-14T01:22:03.354Z,99767.23
2019-04-14T01:24:31.544Z,99771.30
2019-04-14T01:26:59.567Z,99771.98
2019-04-14T01:29:27.730Z,99768.41
2019-04-14T01:31:55.921Z,99768.73
2019-04-14T01:34:23.928Z,99765.37
2019-04-14T01:36:51.851Z,99772.17
2019-04-14T01:39:19.823Z,99775.59
2019-04-14T01:41:47.883Z,99776.60
2019-04-14T01:44:15.683Z,99779.24
2019-04-14T01:46:43.510Z,99779.48
2019-04-14T01:49:11.569Z,99777.22
2019-04-14T01:52:41.449Z,99781.13
2019-04-14T01:55:33.041Z,99789.59
2019-04-14T01:58:32.573Z,99785.83
2019-04-14T02:01:10.548Z,99783.98
2019-04-14T02:03:38.808Z,99790.12
2019-04-14T02:06:07.105Z,99790.23
2019-04-14T02:08:35.269Z,99795.59
2019-04-14T02:11:03.144Z,99800.27
2019-04-14T02:13:31.140Z,99769.08
2019-04-14T02:16:12.777Z,99802.08
2019-04-14T02:18:29.667Z,99799.27
2019-04-14T02:20:58.121Z,99798.80
2019-04-14T02:23:25.914Z,99794.95
2019-04-14T02:25:53.713Z,99797.16
2019-04-14T02:28:22.093Z,99794.26
2019-04-14T02:31:00.124Z,99795.41
2019-04-14T02:33:46.553Z,99797.67
2019-04-14T02:36:21.934Z,99796.57
2019-04-14T02:38:48.983Z,99798.91
2019-04-14T02:41:18.436Z,99802.87
2019-04-14T02:43:51.993Z,99805.94
2019-04-14T02:46:10.714Z,99803.15
2019-04-14T02:48:52.939Z,99808.86
2019-04-14T02:51:23.462Z,99806.77
2019-04-14T02:53:51.368Z,99804.67
2019-04-14T02:56:43.671Z,99807.20
2019-04-14T03:03:43.465Z,99815.73
2019-04-14T03:06:25.721Z,99814.70
2019-04-14T03:13:49.564Z,99818.55
2019-04-14T03:16:23.430Z,99818.93
2019-04-14T03:18:59.756Z,99824.70
2019-04-14T03:22:02.940Z,99823.48
2019-04-14T03:24:33.946Z,99819.77
2019-04-14T03:27:22.707Z,99823.75
2019-04-14T03:35:04.005Z,99824.08
2019-04-14T03:39:51.189Z,99826.47
2019-04-14T03:42:28.828Z,99822.34
2019-04-14T03:44:48.608Z,99816.55
2019-04-14T03:47:25.623Z,99813.65
2019-04-14T03:49:52.456Z,99814.80
2019-04-14T03:52:22.169Z,99814.00
2019-04-14T03:54:46.911Z,99815.06
2019-04-14T03:56:55.886Z,99816.40
2019-04-14T03:59:24.195Z,99818.81
2019-04-14T04:01:52.342Z,99823.16
2019-04-14T04:04:20.641Z,99820.09
2019-04-14T04:06:48.648Z,99820.76
2019-04-14T04:09:17.123Z,99822.88
2019-04-14T04:11:45.516Z,99823.96
2019-04-14T04:14:13.936Z,99824.78
2019-04-14T04:17:21.172Z,99823.16
2019-04-14T04:19:55.520Z,99827.39
2019-04-14T04:22:52.282Z,99835.38
2019-04-14T04:25:37.906Z,99836.40
2019-04-14T04:28:34.672Z,99835.80
2019-04-14T04:31:06.641Z,99835.50
2019-04-14T04:33:44.276Z,99845.64
2019-04-14T04:36:18.132Z,99848.14
2019-04-14T04:38:51.025Z,99844.25
2019-04-14T04:41:19.331Z,99848.94
2019-04-14T04:43:47.370Z,99844.72
2019-04-14T04:46:15.599Z,99851.94
2019-04-14T04:48:43.745Z,99855.53
2019-04-14T04:52:14.560Z,99852.57
2019-04-14T04:54:43.588Z,99855.69
2019-04-14T04:57:11.364Z,99860.52
2019-04-14T04:59:39.165Z,99851.72
2019-04-14T05:02:07.089Z,99852.36
2019-04-14T05:04:35.120Z,99857.39
2019-04-14T05:07:03.526Z,99856.45
2019-04-14T05:09:58.608Z,99854.31
2019-04-14T05:12:46.018Z,99854.73
2019-04-14T05:15:38.017Z,99860.20
2019-04-14T05:18:07.115Z,99867.56
2019-04-14T05:20:35.610Z,99867.09
2019-04-14T05:23:03.779Z,99864.31
2019-04-14T05:25:31.830Z,99866.69
2019-04-14T05:28:00.428Z,99864.16
2019-04-14T05:30:28.657Z,99862.14
2019-04-14T05:32:56.596Z,99865.50
2019-04-14T05:35:24.894Z,99865.81
2019-04-14T05:37:52.986Z,99862.78
2019-04-14T05:40:21.100Z,99862.25
2019-04-14T05:42:49.435Z,99865.84
2019-04-14T05:45:17.705Z,99869.83
2019-04-14T05:47:45.790Z,99868.88
2019-04-14T05:50:13.851Z,99874.00
2019-04-14T05:52:42.591Z,99877.04
2019-04-14T05:55:11.257Z,99882.13
2019-04-14T05:57:39.469Z,99877.49
2019-04-14T06:00:10.465Z,99881.78
2019-04-14T06:02:38.317Z,99877.43
2019-04-14T06:05:06.623Z,99882.34
2019-04-14T06:07:35.066Z,99863.67
2019-04-14T06:10:04.419Z,99868.30
2019-04-14T06:12:32.151Z,99889.78
2019-04-14T06:14:59.984Z,99884.34
2019-04-14T06:17:27.786Z,99894.09
2019-04-14T06:19:55.668Z,99895.98
2019-04-14T06:22:23.429Z,99895.58
2019-04-14T06:24:51.232Z,99900.21
2019-04-14T06:27:19.067Z,99896.83
2019-04-14T06:29:48.767Z,99893.03
2019-04-14T06:32:41.317Z,99887.13
2019-04-14T06:35:28.727Z,99889.91
2019-04-14T06:38:02.311Z,99886.00
2019-04-14T06:40:34.193Z,99872.10
2019-04-14T06:43:01.970Z,99889.87
2019-04-14T06:45:31.810Z,99881.97
2019-04-14T06:48:00.153Z,99887.55
2019-04-14T06:50:28.037Z,99881.53
2019-04-14T06:52:55.796Z,99868.00
2019-04-14T06:55:23.567Z,99884.55
2019-04-14T06:57:51.444Z,99875.88
2019-04-14T07:00:19.420Z,99878.08
2019-04-14T07:02:48.074Z,99879.84
2019-04-14T07:05:15.974Z,99887.17
2019-04-14T07:07:43.793Z,99886.39
2019-04-14T07:10:11.759Z,99876.91
2019-04-14T07:12:39.550Z,99860.53
2019-04-14T07:15:08.384Z,99873.52
2019-04-14T07:17:36.248Z,99889.77
2019-04-14T07:20:05.324Z,99878.32
2019-04-14T07:22:33.121Z,99880.23
2019-04-14T07:25:00.889Z,99892.88
2019-04-14T07:27:28.722Z,99901.80
2019-04-14T07:30:15.638Z,99859.00
2019-04-14T07:32:58.889Z,99879.37
2019-04-14T07:36:01.646Z,99878.06
2019-04-14T07:38:43.130Z,99882.38
2019-04-14T07:42:02.914Z,99887.35
2019-04-14T07:44:53.110Z,99870.52
2019-04-14T07:47:30.335Z,99872.82
2019-04-14T07:50:16.749Z,99871.50
2019-04-14T07:53:04.105Z,99862.89
2019-04-14T07:55:37.512Z,99869.64
2019-04-14T07:58:12.835Z,99874.05
2019-04-14T08:00:50.898Z,99877.74
2019-04-14T08:03:44.078Z,99873.20
2019-04-14T08:06:11.867Z,99868.39
2019-04-14T08:08:39.640Z,99866.52
2019-04-14T08:11:22.628Z,99867.42
2019-04-14T08:13:50.386Z,99870.38
2019-04-14T08:16:18.155Z,99869.14
2019-04-14T08:18:45.935Z,99875.67
2019-04-14T08:21:13.795Z,99870.80
2019-04-14T08:23:41.575Z,99867.79
2019-04-14T08:26:09.391Z,99866.95
2019-04-14T08:28:37.499Z,99874.71
2019-04-14T08:31:05.562Z,99871.53
2019-04-14T08:33:33.334Z,99867.97
2019-04-14T08:36:01.101Z,99864.22
2019-04-14T08:38:28.871Z,99859.39
2019-04-14T08:40:56.650Z,99860.84
2019-04-14T08:43:42.642Z,99848.81
2019-04-14T08:46:19.435Z,99854.23
2019-04-14T08:49:01.491Z,99850.50
2019-04-14T08:51:36.667Z,99852.50
2019-04-14T08:54:15.954Z,99851.23
2019-04-14T08:56:49.796Z,99850.53
2019-04-14T08:59:28.489Z,99849.50
2019-04-14T09:02:16.111Z,99840.70
2019-04-14T09:04:53.305Z,99846.69
2019-04-14T09:07:55.719Z,99838.46
2019-04-14T09:10:26.960Z,99849.86
2019-04-14T09:12:56.216Z,99846.55
2019-04-14T09:15:24.175Z,99847.59
2019-04-14T09:17:51.984Z,99834.56
2019-04-14T09:20:19.805Z,99829.20
2019-04-14T09:22:47.596Z,99821.70
2019-04-14T09:25:15.375Z,99845.83
2019-04-14T09:27:43.168Z,99831.47
2019-04-14T09:30:11.119Z,99825.19
2019-04-14T09:32:39.012Z,99832.50
2019-04-14T09:35:07.019Z,99834.09
2019-04-14T09:37:34.812Z,99831.64
2019-04-14T09:40:02.705Z,99822.41
2019-04-14T09:42:30.509Z,99829.90
2019-04-14T09:44:58.322Z,99835.10
2019-04-14T09:47:26.108Z,99834.95
2019-04-14T09:49:53.884Z,99830.84
2019-04-14T09:52:21.858Z,99823.15
2019-04-14T09:54:49.688Z,99829.71
2019-04-14T09:57:17.474Z,99827.05
2019-04-14T09:59:45.288Z,99817.04
2019-04-14T10:02:32.658Z,99824.09
2019-04-14T10:05:00.478Z,99823.47
2019-04-14T10:07:28.494Z,99825.52
2019-04-14T10:09:56.350Z,99820.77
2019-04-14T10:12:24.109Z,99822.75
2019-04-14T10:14:51.958Z,99810.98
2019-04-14T10:17:19.760Z,99818.75
2019-04-14T10:19:47.631Z,99828.70
2019-04-14T10:22:15.448Z,99829.73
2019-04-14T10:24:43.266Z,99803.03
2019-04-14T10:27:11.150Z,99822.92
2019-04-14T10:29:38.947Z,99822.04
2019-04-14T10:32:06.934Z,99797.41
2019-04-14T10:34:34.775Z,99805.95
2019-04-14T10:37:02.579Z,99824.38
2019-04-14T10:39:30.353Z,99822.43
2019-04-14T10:41:58.560Z,99842.72
2019-04-14T10:44:26.397Z,99834.68
2019-04-14T10:46:54.239Z,99822.28
2019-04-14T10:49:22.079Z,99810.66
2019-04-14T10:51:49.946Z,99807.51
2019-04-14T10:54:17.719Z,99822.34
2019-04-14T10:56:45.446Z,99822.01
2019-04-14T10:59:13.242Z,99828.52
2019-04-14T11:01:46.799Z,99839.41
2019-04-14T11:04:14.715Z,99834.03
2019-04-14T11:06:47.251Z,99821.43
2019-04-14T11:09:15.475Z,99815.73
2019-04-14T11:11:44.066Z,99820.48
2019-04-14T11:14:12.048Z,99820.80
2019-04-14T11:16:39.867Z,99808.52
2019-04-14T11:19:07.765Z,99825.66
2019-04-14T11:21:42.408Z,99826.88
2019-04-14T11:24:05.626Z,99842.18
2019-04-14T11:26:35.644Z,99836.75
2019-04-14T11:29:03.538Z,99831.20
2019-04-14T11:31:51.316Z,99836.58
2019-04-14T11:34:20.588Z,99819.23
2019-04-14T11:37:03.504Z,99814.31
2019-04-14T11:39:31.375Z,99815.55
2019-04-14T11:41:59.328Z,99833.23
2019-04-14T11:44:27.134Z,99831.98
2019-04-14T11:46:54.965Z,99834.49
2019-04-14T11:49:22.756Z,99836.19
2019-04-14T11:51:55.629Z,99834.50
2019-04-14T11:54:30.160Z,99842.02
2019-04-14T11:56:58.108Z,99859.08
2019-04-14T11:59:37.304Z,99864.52
2019-04-14T12:02:26.412Z,99854.48
2019-04-14T12:05:03.471Z,99855.63
2019-04-14T12:07:59.658Z,99857.58
2019-04-14T12:10:39.623Z,99862.08
2019-04-14T12:13:07.414Z,99867.31
2019-04-14T12:15:35.205Z,99873.89
2019-04-14T12:18:03.079Z,99885.97
2019-04-14T12:20:31.077Z,99897.78
2019-04-14T12:22:58.872Z,99890.20
2019-04-14T12:25:26.596Z,99882.22
2019-04-14T12:27:54.387Z,99874.22
2019-04-14T12:30:22.424Z,99877.50
2019-04-14T12:32:50.317Z,99879.41
2019-04-14T12:35:18.109Z,99887.69
2019-04-14T12:37:45.952Z,99891.54
2019-04-14T12:40:13.759Z,99888.68
2019-04-14T12:43:04.824Z,99898.22
2019-04-14T12:45:52.202Z,99900.55
2019-04-14T12:48:38.621Z,99905.08
2019-04-14T12:51:14.130Z,99911.86
2019-04-14T12:53:41.925Z,99908.27
2019-04-14T12:56:09.951Z,99908.75
2019-04-14T12:58:53.379Z,99915.59
2019-04-14T13:01:22.413Z,99918.35
2019-04-14T13:03:50.188Z,99923.69
2019-04-14T13:06:17.980Z,99929.27
2019-04-14T13:08:45.754Z,99930.92
2019-04-14T13:11:13.895Z,99933.95
2019-04-14T13:13:41.787Z,99924.87
2019-04-14T13:16:09.687Z,99933.72
2019-04-14T13:18:39.871Z,99928.11
2019-04-14T13:21:12.769Z,99929.71
2019-04-14T13:23:43.650Z,99929.03
2019-04-14T13:26:11.478Z,99932.37
2019-04-14T13:28:39.305Z,99928.98
2019-04-14T13:31:07.158Z,99930.34
2019-04-14T13:33:34.928Z,99931.70
2019-04-14T13:36:02.790Z,99931.26
2019-04-14T13:38:30.694Z,99929.60
2019-04-14T13:40:59.989Z,99934.72
2019-04-14T13:43:27.883Z,99945.67
2019-04-14T13:45:56.012Z,99943.56
2019-04-14T13:48:26.794Z,99948.80
2019-04-14T13:50:54.659Z,99944.84
2019-04-14T13:53:30.649Z,99938.51
2019-04-14T13:55:58.512Z,99943.78
2019-04-14T13:58:26.390Z,99939.41
2019-04-14T14:00:54.482Z,99933.80
2019-04-14T14:03:22.286Z,99940.53
2019-04-14T14:05:50.171Z,99942.80
2019-04-14T14:08:17.988Z,99941.47
2019-04-14T14:10:46.331Z,99933.59
2019-04-14T14:13:39.989Z,99936.89
2019-04-14T14:16:27.421Z,99937.57
2019-04-14T14:19:02.750Z,99944.77
2019-04-14T14:22:15.340Z,99944.66
2019-04-14T14:24:50.066Z,99943.37
2019-04-14T14:27:17.928Z,99942.75
2019-04-14T14:29:45.762Z,99948.93
2019-04-14T14:32:20.513Z,99947.95
2019-04-14T14:34:48.363Z,99946.70
2019-04-14T14:37:16.217Z,99919.64
2019-04-14T14:39:43.996Z,99939.61
2019-04-14T14:42:11.762Z,99941.89
2019-04-14T14:44:44.681Z,99947.14
2019-04-14T14:47:18.517Z,99947.16
2019-04-14T14:50:08.099Z,99946.51
2019-04-14T14:52:37.297Z,99941.90
2019-04-14T14:55:05.727Z,99935.88
2019-04-14T14:57:33.667Z,99935.24
2019-04-14T15:00:01.447Z,99932.16
2019-04-14T15:02:29.288Z,99934.42
2019-04-14T15:04:57.096Z,99931.68
2019-04-14T15:07:24.954Z,99927.42
2019-04-14T15:09:52.800Z,99935.31
2019-04-14T15:12:20.879Z,99936.67
2019-04-14T15:14:48.702Z,99939.22
2019-04-14T15:17:16.522Z,99946.49
2019-04-14T15:19:44.430Z,99954.11
2019-04-14T15:22:12.251Z,99960.22
2019-04-14T15:24:40.006Z,99962.47
2019-04-14T15:27:07.827Z,99961.42
2019-04-14T15:29:35.634Z,99966.34
2019-04-14T15:32:08.461Z,99959.53
2019-04-14T15:34:36.264Z,99966.45
2019-04-14T15:37:04.176Z,99964.80
2019-04-14T15:39:32.088Z,99967.58
2019-04-14T15:42:00.026Z,99977.06
2019-04-14T15:44:27.852Z,99972.77
2019-04-14T15:46:55.634Z,99975.20
2019-04-14T15:49:23.464Z,99977.80
2019-04-14T15:51:51.432Z,99979.91
2019-04-14T15:54:19.249Z,99975.31
2019-04-14T15:57:24.730Z,99975.94
2019-04-14T16:00:16.144Z,99976.56
2019-04-14T16:03:10.788Z,99978.87
2019-04-14T16:05:54.548Z,99984.73
2019-04-14T16:08:29.578Z,99986.00
2019-04-14T16:11:15.388Z,99994.18
2019-04-14T16:13:48.026Z,99992.28
2019-04-14T16:16:34.002Z,99997.14
2019-04-14T16:19:16.067Z,100001.34
2019-04-14T16:21:43.937Z,99996.34
2019-04-14T16:24:11.792Z,100002.06
2019-04-14T16:26:53.173Z,100001.70
2019-04-14T16:29:28.631Z,100006.36
2019-04-14T16:32:16.146Z,100009.33
2019-04-14T16:34:47.121Z,100010.98
2019-04-14T16:37:14.955Z,100011.51
2019-04-14T16:39:42.788Z,100013.11
2019-04-14T16:42:10.634Z,100007.63
2019-04-14T16:44:38.403Z,100012.70
2019-04-14T16:47:06.220Z,100020.44
2019-04-14T16:49:34.047Z,100018.58
2019-04-14T16:52:20.350Z,100022.58
2019-04-14T16:54:59.473Z,100018.52
2019-04-14T16:57:45.485Z,100022.30
2019-04-14T17:00:30.503Z,100029.67
2019-04-14T17:02:58.375Z,100033.78
2019-04-14T17:05:26.197Z,100032.78
2019-04-14T17:07:54.033Z,100035.30
2019-04-14T17:10:27.050Z,100044.41
2019-04-14T17:12:55.502Z,100044.37
2019-04-14T17:15:57.877Z,100043.13
2019-04-14T17:18:39.588Z,100048.28
2019-04-14T17:21:25.770Z,100050.60
2019-04-14T17:23:56.958Z,100053.15
2019-04-14T17:26:41.942Z,100062.12
2019-04-14T17:29:19.986Z,100066.30
2019-04-14T17:32:21.563Z,100071.70
2019-04-14T17:35:11.790Z,100076.72
2019-04-14T17:37:50.726Z,100083.75
2019-04-14T17:40:28.057Z,100090.20
2019-04-14T17:43:11.476Z,100093.83
2019-04-14T17:45:44.905Z,100099.05
2019-04-14T17:48:32.188Z,100093.80
2019-04-14T17:51:21.363Z,100100.64
2019-04-14T17:54:10.105Z,100101.75
2019-04-14T17:56:49.907Z,100106.98
2019-04-14T17:59:24.283Z,100108.77
2019-04-14T18:02:16.751Z,100113.57
2019-04-14T18:05:03.221Z,100123.16
2019-04-14T18:07:39.006Z,100123.69
2019-04-14T18:10:18.230Z,100125.59
2019-04-14T18:13:04.729Z,100130.48
2019-04-14T18:15:38.765Z,100139.48
2019-04-14T18:18:25.025Z,100141.34
2019-04-14T18:20:56.186Z,100143.05
2019-04-14T18:23:24.109Z,100143.42
2019-04-14T18:25:51.956Z,100151.52
2019-04-14T18:28:46.157Z,100154.14
2019-04-14T18:31:28.001Z,100156.99
2019-04-14T18:34:24.506Z,100165.73
2019-04-14T18:36:58.731Z,100164.44
2019-04-14T18:39:46.182Z,100171.44
2019-04-14T18:42:20.540Z,100169.37
2019-04-14T18:45:08.019Z,100170.20
2019-04-14T18:47:43.730Z,100167.59
2019-04-14T18:50:14.720Z,100172.67
2019-04-14T18:53:02.234Z,100185.02
2019-04-14T18:55:52.469Z,100185.81
2019-04-14T18:58:56.498Z,100193.07
2019-04-14T19:01:30.669Z,100202.74
2019-04-14T19:03:58.613Z,100201.20
2019-04-14T19:06:26.512Z,100205.94
2019-04-14T19:08:54.369Z,100211.90
2019-04-14T19:11:55.823Z,100215.72
2019-04-14T19:14:35.034Z,100220.63
2019-04-14T19:17:22.507Z,100214.59
2019-04-14T19:20:01.215Z,100214.58
2019-04-14T19:22:22.231Z,100212.63
2019-04-14T19:24:50.158Z,100213.86
2019-04-14T19:27:17.989Z,100216.47
2019-04-14T19:29:45.930Z,100218.58
2019-04-14T19:32:23.387Z,100219.04
2019-04-14T19:34:51.335Z,100222.64
2019-04-14T19:37:21.620Z,100222.86
2019-04-14T19:39:52.555Z,100221.62
2019-04-14T19:42:20.521Z,100222.20
2019-04-14T19:44:48.314Z,100220.63
2019-04-14T19:47:16.155Z,100225.27
2019-04-14T19:49:44.010Z,100225.11
2019-04-14T19:52:11.817Z,100221.41
2019-04-14T19:54:39.646Z,100223.46
2019-04-14T19:57:07.524Z,100225.87
2019-04-14T19:59:35.442Z,100228.72
2019-04-14T20:02:23.520Z,100230.20
2019-04-14T20:04:51.885Z,100231.03
2019-04-14T20:07:20.128Z,100235.33
2019-04-14T20:09:48.461Z,100230.31
2019-04-14T20:12:16.897Z,100228.26
2019-04-14T20:14:45.269Z,100228.34
2019-04-14T20:17:31.525Z,100235.59
2019-04-14T20:20:24.456Z,100242.55
2019-04-14T20:23:08.148Z,100245.36
2019-04-14T20:26:01.964Z,100248.97
2019-04-14T20:28:50.022Z,100248.77
2019-04-14T20:31:35.583Z,100246.95
2019-04-14T20:34:03.970Z,100245.93
2019-04-14T20:36:32.256Z,100247.59
2019-04-14T20:39:00.448Z,100250.67
2019-04-14T20:41:29.443Z,100254.16
2019-04-14T20:43:57.915Z,100241.77
2019-04-14T20:46:26.303Z,100245.20
2019-04-14T20:48:54.877Z,100244.80
2019-04-14T20:51:28.364Z,100242.03
2019-04-14T20:53:56.620Z,100237.74
2019-04-14T20:56:24.887Z,100237.59
2019-04-14T20:58:53.245Z,100243.20
2019-04-14T21:01:28.633Z,100245.52
2019-04-14T21:04:04.136Z,100242.77
2019-04-14T21:07:04.105Z,100241.12
2019-04-14T21:09:41.706Z,100243.39
2019-04-14T21:12:27.967Z,100246.20
2019-04-14T21:15:07.125Z,100249.79
2019-04-14T21:17:54.966Z,100250.53
2019-04-14T21:20:33.512Z,100251.98
2019-04-14T21:23:14.832Z,100252.90
2019-04-14T21:26:00.923Z,100251.97
2019-04-14T21:28:35.182Z,100255.00
2019-04-14T21:31:23.419Z,100256.80
2019-04-14T21:34:13.831Z,100256.75
2019-04-14T21:36:45.919Z,100262.26
2019-04-14T21:39:33.833Z,100265.38
2019-04-14T21:42:01.676Z,100261.69
2019-04-14T21:44:29.477Z,100265.72
2019-04-14T21:46:57.323Z,100270.24
2019-04-14T21:49:25.092Z,100269.41
2019-04-14T21:52:18.493Z,100269.64
2019-04-14T21:54:46.367Z,100274.53
2019-04-14T21:57:40.411Z,100274.77
2019-04-14T22:00:39.307Z,100268.84
2019-04-14T22:03:44.389Z,100273.91
2019-04-14T22:06:16.449Z,100266.61
2019-04-14T22:08:49.334Z,100270.77
2019-04-14T22:11:21.022Z,100273.82
2019-04-14T22:13:51.132Z,100265.61
2019-04-14T22:16:18.529Z,100273.17
2019-04-14T22:18:46.363Z,100273.78
2019-04-14T22:21:14.228Z,100276.30
2019-04-14T22:23:42.074Z,100278.45
2019-04-14T22:26:09.988Z,100276.84
2019-04-14T22:28:37.760Z,100278.82
2019-04-14T22:31:05.581Z,100279.70
2019-04-14T22:33:33.381Z,100278.38
2019-04-14T22:36:01.134Z,100282.41
2019-04-14T22:38:28.963Z,100282.16
2019-04-14T22:40:56.992Z,100241.67
2019-04-14T22:43:24.773Z,100286.73
2019-04-14T22:45:52.541Z,100289.94
2019-04-14T22:48:20.510Z,100280.75
2019-04-14T22:50:48.264Z,100283.08
2019-04-14T22:53:16.075Z,100281.19
2019-04-14T22:55:43.840Z,100280.08
2019-04-14T22:58:13.007Z,100286.41
2019-04-14T23:00:51.016Z,100281.48
2019-04-14T23:03:26.724Z,100279.70
2019-04-14T23:06:06.157Z,100282.71
2019-04-14T23:08:38.466Z,100286.70
2019-04-14T23:11:15.477Z,100285.31
2019-04-14T23:14:01.748Z,100282.21
2019-04-14T23:16:51.949Z,100282.67
2019-04-14T23:19:27.812Z,100287.00
2019-04-14T23:22:05.257Z,100289.01
2019-04-14T23:24:38.884Z,100285.14
2019-04-14T23:27:06.666Z,100289.16
2019-04-14T23:29:34.479Z,100290.42
2019-04-14T23:32:02.336Z,100281.89
2019-04-14T23:34:30.122Z,100280.33
2019-04-14T23:36:57.857Z,100280.91
2019-04-14T23:39:25.660Z,100279.70
2019-04-14T23:41:53.622Z,100276.55
2019-04-14T23:44:21.441Z,100277.68
2019-04-14T23:46:49.242Z,100277.44
2019-04-14T23:49:17.029Z,100278.30
2019-04-14T23:51:44.809Z,100272.86
2019-04-14T23:54:12.670Z,100275.59
2019-04-14T23:56:40.395Z,100273.72
2019-04-14T23:59:08.280Z,100269.38
